sensor_id;sensor_type;location;lat;lon;timestamp;temperature;humidity
18207;DHT22;9229;52.354;20.886;2023-02-15T00:01:41;2.20;99.90
18207;DHT22;9229;52.354;20.886;2023-02-15T00:06:45;2.30;99.90
18207;DHT22;9229;52.354;20.886;2023-02-15T00:11:47;2.30;99.90
18207;DHT22;9229;52.354;20.886;2023-02-15T00:16:52;2.40;99.90
18207;DHT22;9229;52.354;20.886;2023-02-15T00:22:01;2.40;99.90
18207;DHT22;9229;52.354;20.886;2023-02-15T00:27:04;2.40;99.90
18207;DHT22;9229;52.354;20.886;2023-02-15T00:32:06;2.40;99.90
18207;DHT22;9229;52.354;20.886;2023-02-15T00:37:11;2.40;99.90
18207;DHT22;9229;52.354;20.886;2023-02-15T00:42:13;2.50;99.90
18207;DHT22;9229;52.354;20.886;2023-02-15T00:47:15;2.50;99.90
18207;DHT22;9229;52.354;20.886;2023-02-15T00:52:19;2.50;99.90
18207;DHT22;9229;52.354;20.886;2023-02-15T00:57:23;2.60;99.90
18207;DHT22;9229;52.354;20.886;2023-02-15T01:02:25;2.60;99.90
18207;DHT22;9229;52.354;20.886;2023-02-15T01:07:28;2.70;99.90
18207;DHT22;9229;52.354;20.886;2023-02-15T01:12:30;2.60;99.90
18207;DHT22;9229;52.354;20.886;2023-02-15T01:17:32;2.70;99.90
18207;DHT22;9229;52.354;20.886;2023-02-15T01:22:39;2.70;99.90
18207;DHT22;9229;52.354;20.886;2023-02-15T01:27:43;2.70;99.90
18207;DHT22;9229;52.354;20.886;2023-02-15T01:32:47;2.70;99.90
18207;DHT22;9229;52.354;20.886;2023-02-15T01:37:51;2.70;99.90
18207;DHT22;9229;52.354;20.886;2023-02-15T01:42:55;2.70;99.90
18207;DHT22;9229;52.354;20.886;2023-02-15T01:48:00;2.70;99.90
18207;DHT22;9229;52.354;20.886;2023-02-15T01:53:08;2.70;99.90
18207;DHT22;9229;52.354;20.886;2023-02-15T01:58:13;2.70;99.90
18207;DHT22;9229;52.354;20.886;2023-02-15T02:03:16;2.80;99.90
18207;DHT22;9229;52.354;20.886;2023-02-15T02:08:19;2.80;99.90
18207;DHT22;9229;52.354;20.886;2023-02-15T02:13:21;2.80;99.90
18207;DHT22;9229;52.354;20.886;2023-02-15T02:18:35;2.80;99.90
18207;DHT22;9229;52.354;20.886;2023-02-15T02:29:54;2.80;99.90
18207;DHT22;9229;52.354;20.886;2023-02-15T02:35:09;2.80;99.90
18207;DHT22;9229;52.354;20.886;2023-02-15T02:40:19;2.80;99.90
18207;DHT22;9229;52.354;20.886;2023-02-15T02:45:25;2.80;99.90
18207;DHT22;9229;52.354;20.886;2023-02-15T02:50:31;2.80;99.90
18207;DHT22;9229;52.354;20.886;2023-02-15T02:55:36;2.80;99.90
18207;DHT22;9229;52.354;20.886;2023-02-15T03:00:42;2.90;99.90
18207;DHT22;9229;52.354;20.886;2023-02-15T03:05:50;2.80;99.90
18207;DHT22;9229;52.354;20.886;2023-02-15T03:10:58;2.90;99.90
18207;DHT22;9229;52.354;20.886;2023-02-15T03:16:02;2.90;99.90
18207;DHT22;9229;52.354;20.886;2023-02-15T03:21:31;2.90;99.90
18207;DHT22;9229;52.354;20.886;2023-02-15T03:26:36;3.00;99.90
18207;DHT22;9229;52.354;20.886;2023-02-15T03:31:41;2.90;99.90
18207;DHT22;9229;52.354;20.886;2023-02-15T03:36:50;2.90;99.90
18207;DHT22;9229;52.354;20.886;2023-02-15T03:41:58;2.90;99.90
18207;DHT22;9229;52.354;20.886;2023-02-15T03:47:05;2.90;99.90
18207;DHT22;9229;52.354;20.886;2023-02-15T03:52:13;2.90;99.90
18207;DHT22;9229;52.354;20.886;2023-02-15T03:57:19;3.00;99.90
18207;DHT22;9229;52.354;20.886;2023-02-15T04:02:48;2.90;99.90
18207;DHT22;9229;52.354;20.886;2023-02-15T04:07:55;3.00;99.90
18207;DHT22;9229;52.354;20.886;2023-02-15T04:12:57;2.90;99.90
18207;DHT22;9229;52.354;20.886;2023-02-15T04:18:02;2.90;99.90
18207;DHT22;9229;52.354;20.886;2023-02-15T04:23:07;3.00;99.90
18207;DHT22;9229;52.354;20.886;2023-02-15T04:28:27;3.00;99.90
18207;DHT22;9229;52.354;20.886;2023-02-15T04:33:29;3.00;99.90
18207;DHT22;9229;52.354;20.886;2023-02-15T04:38:32;3.00;99.90
18207;DHT22;9229;52.354;20.886;2023-02-15T04:43:34;3.00;99.90
18207;DHT22;9229;52.354;20.886;2023-02-15T04:48:36;3.00;99.90
18207;DHT22;9229;52.354;20.886;2023-02-15T04:53:40;3.10;99.90
18207;DHT22;9229;52.354;20.886;2023-02-15T04:58:42;3.10;99.90
18207;DHT22;9229;52.354;20.886;2023-02-15T05:03:44;3.10;99.90
18207;DHT22;9229;52.354;20.886;2023-02-15T05:08:47;3.10;99.90
18207;DHT22;9229;52.354;20.886;2023-02-15T05:13:49;3.10;99.90
18207;DHT22;9229;52.354;20.886;2023-02-15T05:18:51;3.10;99.90
18207;DHT22;9229;52.354;20.886;2023-02-15T05:23:54;3.20;99.90
18207;DHT22;9229;52.354;20.886;2023-02-15T05:28:56;3.20;99.90
18207;DHT22;9229;52.354;20.886;2023-02-15T05:33:59;3.20;99.90
18207;DHT22;9229;52.354;20.886;2023-02-15T05:39:03;3.20;99.90
18207;DHT22;9229;52.354;20.886;2023-02-15T05:44:06;3.20;99.90
18207;DHT22;9229;52.354;20.886;2023-02-15T05:49:10;3.20;99.90
18207;DHT22;9229;52.354;20.886;2023-02-15T05:54:13;3.20;99.90
18207;DHT22;9229;52.354;20.886;2023-02-15T05:59:15;3.20;99.90
18207;DHT22;9229;52.354;20.886;2023-02-15T06:04:18;3.20;99.90
18207;DHT22;9229;52.354;20.886;2023-02-15T06:09:21;3.20;99.90
18207;DHT22;9229;52.354;20.886;2023-02-15T06:14:23;3.20;99.90
18207;DHT22;9229;52.354;20.886;2023-02-15T06:19:25;3.20;99.90
18207;DHT22;9229;52.354;20.886;2023-02-15T06:24:29;3.20;99.90
18207;DHT22;9229;52.354;20.886;2023-02-15T06:29:31;3.20;99.90
18207;DHT22;9229;52.354;20.886;2023-02-15T06:34:33;3.30;99.90
18207;DHT22;9229;52.354;20.886;2023-02-15T06:39:37;3.30;99.90
18207;DHT22;9229;52.354;20.886;2023-02-15T06:44:39;3.30;99.90
18207;DHT22;9229;52.354;20.886;2023-02-15T06:49:47;3.40;99.90
18207;DHT22;9229;52.354;20.886;2023-02-15T06:54:50;3.40;99.90
18207;DHT22;9229;52.354;20.886;2023-02-15T06:59:52;3.40;99.90
18207;DHT22;9229;52.354;20.886;2023-02-15T07:04:54;3.50;99.90
18207;DHT22;9229;52.354;20.886;2023-02-15T07:09:58;3.50;99.90
18207;DHT22;9229;52.354;20.886;2023-02-15T07:15:00;3.50;99.90
18207;DHT22;9229;52.354;20.886;2023-02-15T07:20:07;3.50;99.90
18207;DHT22;9229;52.354;20.886;2023-02-15T07:25:11;3.50;99.90
18207;DHT22;9229;52.354;20.886;2023-02-15T07:30:16;3.60;99.90
18207;DHT22;9229;52.354;20.886;2023-02-15T07:35:18;3.60;99.90
18207;DHT22;9229;52.354;20.886;2023-02-15T07:40:21;3.60;99.90
18207;DHT22;9229;52.354;20.886;2023-02-15T07:45:24;3.60;99.90
18207;DHT22;9229;52.354;20.886;2023-02-15T07:50:26;3.60;99.90
18207;DHT22;9229;52.354;20.886;2023-02-15T07:55:32;3.70;99.90
18207;DHT22;9229;52.354;20.886;2023-02-15T08:00:34;3.70;99.90
18207;DHT22;9229;52.354;20.886;2023-02-15T08:05:57;3.70;99.90
18207;DHT22;9229;52.354;20.886;2023-02-15T08:11:05;3.70;99.90
18207;DHT22;9229;52.354;20.886;2023-02-15T08:16:28;3.80;99.90
18207;DHT22;9229;52.354;20.886;2023-02-15T08:21:30;3.70;99.90
18207;DHT22;9229;52.354;20.886;2023-02-15T08:26:35;3.70;99.90
18207;DHT22;9229;52.354;20.886;2023-02-15T08:31:39;3.80;99.90
18207;DHT22;9229;52.354;20.886;2023-02-15T08:36:44;3.90;99.90
18207;DHT22;9229;52.354;20.886;2023-02-15T08:41:49;3.70;99.90
18207;DHT22;9229;52.354;20.886;2023-02-15T08:46:51;3.80;99.90
18207;DHT22;9229;52.354;20.886;2023-02-15T08:51:53;3.70;99.90
18207;DHT22;9229;52.354;20.886;2023-02-15T08:56:59;3.70;99.90
18207;DHT22;9229;52.354;20.886;2023-02-15T09:02:01;3.60;99.90
18207;DHT22;9229;52.354;20.886;2023-02-15T09:07:03;3.60;99.90
18207;DHT22;9229;52.354;20.886;2023-02-15T09:12:07;3.70;99.90
18207;DHT22;9229;52.354;20.886;2023-02-15T09:17:09;3.80;99.90
18207;DHT22;9229;52.354;20.886;2023-02-15T09:22:11;3.80;99.90
18207;DHT22;9229;52.354;20.886;2023-02-15T09:27:17;3.60;99.90
18207;DHT22;9229;52.354;20.886;2023-02-15T09:32:19;3.50;99.90
18207;DHT22;9229;52.354;20.886;2023-02-15T09:37:22;3.50;99.90
18207;DHT22;9229;52.354;20.886;2023-02-15T09:43:00;3.60;99.90
18207;DHT22;9229;52.354;20.886;2023-02-15T09:48:24;3.70;99.90
18207;DHT22;9229;52.354;20.886;2023-02-15T09:53:47;3.60;99.90
18207;DHT22;9229;52.354;20.886;2023-02-15T09:59:01;3.50;99.90
18207;DHT22;9229;52.354;20.886;2023-02-15T10:04:19;3.50;99.90
18207;DHT22;9229;52.354;20.886;2023-02-15T10:09:40;3.50;99.90
18207;DHT22;9229;52.354;20.886;2023-02-15T10:15:06;3.50;99.90
18207;DHT22;9229;52.354;20.886;2023-02-15T10:20:20;3.50;99.90
18207;DHT22;9229;52.354;20.886;2023-02-15T10:25:33;3.50;99.90
18207;DHT22;9229;52.354;20.886;2023-02-15T10:30:43;3.50;99.90
18207;DHT22;9229;52.354;20.886;2023-02-15T10:35:53;3.50;99.90
18207;DHT22;9229;52.354;20.886;2023-02-15T10:41:09;3.50;99.90
18207;DHT22;9229;52.354;20.886;2023-02-15T10:46:27;3.60;99.90
18207;DHT22;9229;52.354;20.886;2023-02-15T10:51:40;3.60;99.90
18207;DHT22;9229;52.354;20.886;2023-02-15T10:56:51;3.60;99.90
18207;DHT22;9229;52.354;20.886;2023-02-15T11:02:01;3.70;99.90
18207;DHT22;9229;52.354;20.886;2023-02-15T11:07:11;3.70;99.90
18207;DHT22;9229;52.354;20.886;2023-02-15T11:12:18;3.70;99.90
18207;DHT22;9229;52.354;20.886;2023-02-15T11:17:26;3.70;99.90
18207;DHT22;9229;52.354;20.886;2023-02-15T11:22:31;3.70;99.90
18207;DHT22;9229;52.354;20.886;2023-02-15T11:27:33;3.80;99.90
18207;DHT22;9229;52.354;20.886;2023-02-15T11:32:40;3.70;99.90
18207;DHT22;9229;52.354;20.886;2023-02-15T11:37:46;3.60;99.90
18207;DHT22;9229;52.354;20.886;2023-02-15T11:42:50;3.70;99.90
18207;DHT22;9229;52.354;20.886;2023-02-15T11:47:56;3.50;99.90
18207;DHT22;9229;52.354;20.886;2023-02-15T11:53:02;3.60;99.90
18207;DHT22;9229;52.354;20.886;2023-02-15T11:58:12;3.70;99.90
18207;DHT22;9229;52.354;20.886;2023-02-15T12:03:20;3.70;99.90
18207;DHT22;9229;52.354;20.886;2023-02-15T12:08:24;3.60;99.90
18207;DHT22;9229;52.354;20.886;2023-02-15T12:13:28;3.60;99.90
18207;DHT22;9229;52.354;20.886;2023-02-15T12:18:37;3.60;99.90
18207;DHT22;9229;52.354;20.886;2023-02-15T12:23:46;3.60;99.90
18207;DHT22;9229;52.354;20.886;2023-02-15T12:28:50;3.60;99.90
18207;DHT22;9229;52.354;20.886;2023-02-15T12:33:57;3.60;99.90
18207;DHT22;9229;52.354;20.886;2023-02-15T12:39:05;3.60;99.90
18207;DHT22;9229;52.354;20.886;2023-02-15T12:44:17;3.70;99.90
18207;DHT22;9229;52.354;20.886;2023-02-15T12:49:20;3.80;99.90
18207;DHT22;9229;52.354;20.886;2023-02-15T12:54:38;3.80;99.90
18207;DHT22;9229;52.354;20.886;2023-02-15T12:59:48;3.90;99.90
18207;DHT22;9229;52.354;20.886;2023-02-15T13:04:53;3.90;99.90
18207;DHT22;9229;52.354;20.886;2023-02-15T13:09:56;3.90;99.90
18207;DHT22;9229;52.354;20.886;2023-02-15T13:14:59;3.90;99.90
18207;DHT22;9229;52.354;20.886;2023-02-15T13:20:09;3.90;99.90
18207;DHT22;9229;52.354;20.886;2023-02-15T13:25:20;3.90;99.90
18207;DHT22;9229;52.354;20.886;2023-02-15T13:30:25;4.00;99.90
18207;DHT22;9229;52.354;20.886;2023-02-15T13:35:36;4.00;99.90
18207;DHT22;9229;52.354;20.886;2023-02-15T13:40:45;4.00;99.90
18207;DHT22;9229;52.354;20.886;2023-02-15T13:45:57;4.10;99.90
18207;DHT22;9229;52.354;20.886;2023-02-15T13:51:12;4.10;99.90
18207;DHT22;9229;52.354;20.886;2023-02-15T13:56:28;4.10;99.90
18207;DHT22;9229;52.354;20.886;2023-02-15T14:01:39;4.20;99.90
18207;DHT22;9229;52.354;20.886;2023-02-15T14:07:12;4.20;99.90
18207;DHT22;9229;52.354;20.886;2023-02-15T14:12:34;4.30;99.90
18207;DHT22;9229;52.354;20.886;2023-02-15T14:17:47;4.30;99.90
18207;DHT22;9229;52.354;20.886;2023-02-15T14:22:57;4.30;99.90
18207;DHT22;9229;52.354;20.886;2023-02-15T14:28:07;4.20;99.90
18207;DHT22;9229;52.354;20.886;2023-02-15T14:33:26;4.30;99.90
18207;DHT22;9229;52.354;20.886;2023-02-15T14:38:43;4.20;99.90
18207;DHT22;9229;52.354;20.886;2023-02-15T14:43:52;4.10;99.90
18207;DHT22;9229;52.354;20.886;2023-02-15T14:48:57;4.00;99.90
18207;DHT22;9229;52.354;20.886;2023-02-15T14:54:02;3.80;99.90
18207;DHT22;9229;52.354;20.886;2023-02-15T14:59:15;3.80;99.90
18207;DHT22;9229;52.354;20.886;2023-02-15T15:04:25;3.70;99.90
18207;DHT22;9229;52.354;20.886;2023-02-15T15:09:32;3.70;99.90
18207;DHT22;9229;52.354;20.886;2023-02-15T15:14:42;3.70;99.90
18207;DHT22;9229;52.354;20.886;2023-02-15T15:20:05;3.70;99.90
18207;DHT22;9229;52.354;20.886;2023-02-15T15:25:42;3.70;99.90
18207;DHT22;9229;52.354;20.886;2023-02-15T15:30:49;3.60;99.90
18207;DHT22;9229;52.354;20.886;2023-02-15T15:36:12;3.60;99.90
18207;DHT22;9229;52.354;20.886;2023-02-15T15:41:30;3.60;99.90
18207;DHT22;9229;52.354;20.886;2023-02-15T15:46:53;3.50;99.90
18207;DHT22;9229;52.354;20.886;2023-02-15T15:52:01;3.50;99.90
18207;DHT22;9229;52.354;20.886;2023-02-15T15:57:12;3.40;99.90
18207;DHT22;9229;52.354;20.886;2023-02-15T16:02:17;3.40;99.90
18207;DHT22;9229;52.354;20.886;2023-02-15T16:07:24;3.50;99.90
18207;DHT22;9229;52.354;20.886;2023-02-15T16:12:29;3.40;99.90
18207;DHT22;9229;52.354;20.886;2023-02-15T16:17:32;3.40;99.90
18207;DHT22;9229;52.354;20.886;2023-02-15T16:22:35;3.40;99.90
18207;DHT22;9229;52.354;20.886;2023-02-15T16:27:39;3.30;99.90
18207;DHT22;9229;52.354;20.886;2023-02-15T16:32:43;3.30;99.90
18207;DHT22;9229;52.354;20.886;2023-02-15T16:37:45;3.20;99.90
18207;DHT22;9229;52.354;20.886;2023-02-15T16:42:54;3.20;99.90
18207;DHT22;9229;52.354;20.886;2023-02-15T16:48:01;3.10;99.90
18207;DHT22;9229;52.354;20.886;2023-02-15T16:53:12;3.10;99.90
18207;DHT22;9229;52.354;20.886;2023-02-15T16:58:17;3.00;99.90
18207;DHT22;9229;52.354;20.886;2023-02-15T17:03:24;3.00;99.90
18207;DHT22;9229;52.354;20.886;2023-02-15T17:08:30;3.00;99.90
18207;DHT22;9229;52.354;20.886;2023-02-15T17:13:33;3.00;99.90
18207;DHT22;9229;52.354;20.886;2023-02-15T17:18:39;2.90;99.90
18207;DHT22;9229;52.354;20.886;2023-02-15T17:23:45;2.90;99.90
18207;DHT22;9229;52.354;20.886;2023-02-15T17:28:51;2.80;99.90
18207;DHT22;9229;52.354;20.886;2023-02-15T17:33:56;2.80;99.90
18207;DHT22;9229;52.354;20.886;2023-02-15T17:39:20;2.90;99.90
18207;DHT22;9229;52.354;20.886;2023-02-15T17:44:25;2.90;99.90
18207;DHT22;9229;52.354;20.886;2023-02-15T17:49:27;2.90;99.90
18207;DHT22;9229;52.354;20.886;2023-02-15T17:54:34;2.90;99.90
18207;DHT22;9229;52.354;20.886;2023-02-15T17:59:57;2.80;99.90
18207;DHT22;9229;52.354;20.886;2023-02-15T18:05:17;2.70;99.90
18207;DHT22;9229;52.354;20.886;2023-02-15T18:10:38;2.70;99.90
18207;DHT22;9229;52.354;20.886;2023-02-15T18:15:59;2.60;99.90
18207;DHT22;9229;52.354;20.886;2023-02-15T18:21:02;2.60;99.90
18207;DHT22;9229;52.354;20.886;2023-02-15T18:26:04;2.50;99.90
18207;DHT22;9229;52.354;20.886;2023-02-15T18:31:08;2.50;99.90
18207;DHT22;9229;52.354;20.886;2023-02-15T18:36:15;2.60;99.90
18207;DHT22;9229;52.354;20.886;2023-02-15T18:41:19;2.60;99.90
18207;DHT22;9229;52.354;20.886;2023-02-15T18:46:23;2.70;99.90
18207;DHT22;9229;52.354;20.886;2023-02-15T18:51:25;2.70;99.90
18207;DHT22;9229;52.354;20.886;2023-02-15T18:56:27;2.70;99.90
18207;DHT22;9229;52.354;20.886;2023-02-15T19:01:34;2.70;99.90
18207;DHT22;9229;52.354;20.886;2023-02-15T19:06:40;2.60;99.90
18207;DHT22;9229;52.354;20.886;2023-02-15T19:11:50;2.50;99.90
18207;DHT22;9229;52.354;20.886;2023-02-15T19:16:54;2.50;99.90
18207;DHT22;9229;52.354;20.886;2023-02-15T19:21:56;2.50;99.90
18207;DHT22;9229;52.354;20.886;2023-02-15T19:26:59;2.60;99.90
18207;DHT22;9229;52.354;20.886;2023-02-15T19:32:07;2.50;99.90
18207;DHT22;9229;52.354;20.886;2023-02-15T19:37:21;2.50;99.90
18207;DHT22;9229;52.354;20.886;2023-02-15T19:42:25;2.50;99.90
18207;DHT22;9229;52.354;20.886;2023-02-15T19:47:29;2.60;99.90
18207;DHT22;9229;52.354;20.886;2023-02-15T19:52:31;2.50;99.90
18207;DHT22;9229;52.354;20.886;2023-02-15T19:57:34;2.50;99.90
18207;DHT22;9229;52.354;20.886;2023-02-15T20:02:39;2.50;99.90
18207;DHT22;9229;52.354;20.886;2023-02-15T20:07:43;2.50;99.90
18207;DHT22;9229;52.354;20.886;2023-02-15T20:12:46;2.50;99.90
18207;DHT22;9229;52.354;20.886;2023-02-15T20:17:51;2.50;99.90
18207;DHT22;9229;52.354;20.886;2023-02-15T20:22:53;2.60;99.90
18207;DHT22;9229;52.354;20.886;2023-02-15T20:27:56;2.60;99.90
18207;DHT22;9229;52.354;20.886;2023-02-15T20:33:01;2.60;99.90
18207;DHT22;9229;52.354;20.886;2023-02-15T20:38:06;2.60;99.90
18207;DHT22;9229;52.354;20.886;2023-02-15T20:43:14;2.60;99.90
18207;DHT22;9229;52.354;20.886;2023-02-15T20:48:17;2.60;99.90
18207;DHT22;9229;52.354;20.886;2023-02-15T20:53:20;2.60;99.90
18207;DHT22;9229;52.354;20.886;2023-02-15T20:58:25;2.60;99.90
18207;DHT22;9229;52.354;20.886;2023-02-15T21:03:30;2.60;99.90
18207;DHT22;9229;52.354;20.886;2023-02-15T21:08:33;2.50;99.90
18207;DHT22;9229;52.354;20.886;2023-02-15T21:13:35;2.40;99.90
18207;DHT22;9229;52.354;20.886;2023-02-15T21:18:39;2.30;99.90
18207;DHT22;9229;52.354;20.886;2023-02-15T21:23:42;2.20;99.90
18207;DHT22;9229;52.354;20.886;2023-02-15T21:28:46;2.00;99.90
18207;DHT22;9229;52.354;20.886;2023-02-15T21:33:50;1.90;99.90
18207;DHT22;9229;52.354;20.886;2023-02-15T21:38:52;1.80;99.90
18207;DHT22;9229;52.354;20.886;2023-02-15T21:43:54;1.70;99.90
18207;DHT22;9229;52.354;20.886;2023-02-15T21:49:16;1.60;99.90
18207;DHT22;9229;52.354;20.886;2023-02-15T21:54:19;1.50;99.90
18207;DHT22;9229;52.354;20.886;2023-02-15T21:59:21;1.40;99.90
18207;DHT22;9229;52.354;20.886;2023-02-15T22:04:26;1.20;99.90
18207;DHT22;9229;52.354;20.886;2023-02-15T22:09:29;1.10;99.90
18207;DHT22;9229;52.354;20.886;2023-02-15T22:14:37;1.00;99.90
18207;DHT22;9229;52.354;20.886;2023-02-15T22:19:41;0.90;99.90
18207;DHT22;9229;52.354;20.886;2023-02-15T22:24:44;0.80;99.90
18207;DHT22;9229;52.354;20.886;2023-02-15T22:29:47;0.70;99.90
18207;DHT22;9229;52.354;20.886;2023-02-15T22:34:52;0.70;99.90
18207;DHT22;9229;52.354;20.886;2023-02-15T22:39:54;0.50;99.90
18207;DHT22;9229;52.354;20.886;2023-02-15T22:44:56;0.40;99.90
18207;DHT22;9229;52.354;20.886;2023-02-15T22:50:01;0.30;99.90
18207;DHT22;9229;52.354;20.886;2023-02-15T22:55:04;0.20;99.90
18207;DHT22;9229;52.354;20.886;2023-02-15T23:00:11;0.10;99.90
18207;DHT22;9229;52.354;20.886;2023-02-15T23:05:18;0.00;99.90
18207;DHT22;9229;52.354;20.886;2023-02-15T23:10:23;-0.10;99.90
18207;DHT22;9229;52.354;20.886;2023-02-15T23:15:25;-0.10;99.90
18207;DHT22;9229;52.354;20.886;2023-02-15T23:20:29;-0.20;99.90
18207;DHT22;9229;52.354;20.886;2023-02-15T23:25:31;-0.30;99.90
18207;DHT22;9229;52.354;20.886;2023-02-15T23:30:33;-0.40;99.90
18207;DHT22;9229;52.354;20.886;2023-02-15T23:35:36;-0.40;99.90
18207;DHT22;9229;52.354;20.886;2023-02-15T23:40:39;-0.50;99.90
18207;DHT22;9229;52.354;20.886;2023-02-15T23:45:58;-0.60;99.90
18207;DHT22;9229;52.354;20.886;2023-02-15T23:51:03;-0.60;99.90
18207;DHT22;9229;52.354;20.886;2023-02-15T23:56:05;-0.70;99.90
